KLXV

Lake County Airport

Leadville, Colorado, USA
METAR KLXV 110353Z AUTO 05004KT 10SM CLR M09/M22 A3023 RMK AO2 SLP254 T10891222
Observed Flight Rules
Dec-11 @ 03:53 UTC (an hour ago) Visual Flight Rules
Wind Visibility Clouds
50° at 4 knots 10 miles
  • Clear skies
Temperatures Readings
Current -9°C / 16°F
Dewpoint -22°C / -8°F
Humidity 34%
Altimeter 30.23" Hg
Pressure 1025.4 hPa
Elevation 3028
METAR KLXV 110353Z AUTO 05004KT 10SM CLR M09/M22 A3023 RMK AO2 SLP254 T10891222
Observed Flight Rules
Dec-11 @ 03:53 UTC
(an hour ago)
VFR
Wind Visibility
50° at 4 knots 10 miles
Clouds
  • Clear skies
Temperature Dewpoint
-9°C / 16°F -22°C / -8°F
Humidity Altimeter Pressure
34% 30.23" Hg 1025.4 hPa